createdAt,value
2023-01-10T00:00:37.476Z,2.10
2023-01-10T00:03:08.255Z,2.45
2023-01-10T00:05:35.115Z,2.42
2023-01-10T00:08:04.796Z,1.88
2023-01-10T00:10:31.747Z,2.08
2023-01-10T00:13:17.008Z,2.10
2023-01-10T00:15:43.616Z,2.08
2023-01-10T00:18:10.106Z,1.73
2023-01-10T00:20:36.571Z,1.83
2023-01-10T00:23:03.714Z,1.90
2023-01-10T00:25:30.417Z,2.50
2023-01-10T00:28:15.494Z,2.47
2023-01-10T00:30:41.809Z,2.10
2023-01-10T00:33:08.872Z,2.22
2023-01-10T00:35:35.679Z,1.95
2023-01-10T00:38:05.714Z,1.88
2023-01-10T00:40:33.076Z,3.03
2023-01-10T00:43:18.828Z,1.63
2023-01-10T00:45:45.622Z,2.10
2023-01-10T00:48:12.905Z,1.92
2023-01-10T00:50:39.388Z,2.35
2023-01-10T00:53:05.820Z,2.30
2023-01-10T00:55:32.651Z,1.73
2023-01-10T00:57:59.043Z,2.72
2023-01-10T01:00:25.362Z,2.03
2023-01-10T01:02:51.815Z,2.10
2023-01-10T01:05:18.867Z,1.92
2023-01-10T01:07:47.588Z,2.58
2023-01-10T01:10:28.986Z,2.35
2023-01-10T01:12:59.599Z,2.63
2023-01-10T01:15:26.934Z,2.13
2023-01-10T01:17:53.669Z,2.10
2023-01-10T01:20:21.206Z,2.15
2023-01-10T01:22:47.524Z,2.22
2023-01-10T01:25:14.013Z,1.88
2023-01-10T01:27:40.461Z,2.60
2023-01-10T01:30:07.564Z,2.08
2023-01-10T01:32:34.260Z,3.05
2023-01-10T01:35:00.847Z,2.03
2023-01-10T01:37:27.260Z,2.70
2023-01-10T01:39:53.621Z,2.60
2023-01-10T01:42:30.290Z,2.95
2023-01-10T01:45:08.914Z,2.40
2023-01-10T01:47:43.821Z,2.33
2023-01-10T01:50:30.474Z,2.20
2023-01-10T01:52:58.171Z,3.75
2023-01-10T01:55:25.329Z,2.42
2023-01-10T01:57:52.513Z,2.78
2023-01-10T02:00:19.028Z,3.33
2023-01-10T02:03:01.236Z,2.03
2023-01-10T02:05:29.420Z,2.67
2023-01-10T02:07:56.640Z,5.07
2023-01-10T02:10:23.180Z,3.13
2023-01-10T02:12:51.764Z,2.53
2023-01-10T02:15:18.636Z,2.13
2023-01-10T02:17:48.917Z,2.50
2023-01-10T02:20:16.794Z,2.55
2023-01-10T02:23:13.369Z,2.63
2023-01-10T02:25:42.891Z,2.30
2023-01-10T02:28:09.310Z,3.13
2023-01-10T02:30:44.657Z,2.42
2023-01-10T02:33:11.046Z,3.35
2023-01-10T02:35:46.060Z,3.47
2023-01-10T02:38:18.595Z,2.97
2023-01-10T02:40:56.896Z,3.22
2023-01-10T02:43:31.657Z,2.30
2023-01-10T02:46:00.192Z,2.88
2023-01-10T02:48:26.649Z,1.98
2023-01-10T02:51:03.952Z,2.30
2023-01-10T02:53:36.149Z,2.58
2023-01-10T02:56:09.422Z,2.45
2023-01-10T02:58:35.707Z,2.38
2023-01-10T03:01:18.361Z,2.92
2023-01-10T03:04:00.720Z,2.80
2023-01-10T03:06:27.195Z,2.25
2023-01-10T03:09:04.735Z,2.42
2023-01-10T03:11:41.512Z,2.65
2023-01-10T03:14:18.991Z,2.33
2023-01-10T03:16:48.149Z,2.83
2023-01-10T03:19:17.353Z,3.45
2023-01-10T03:21:44.104Z,1.88
2023-01-10T03:24:18.860Z,2.50
2023-01-10T03:26:52.538Z,1.50
2023-01-10T03:29:21.875Z,2.78
2023-01-10T03:31:51.920Z,2.72
2023-01-10T03:34:18.335Z,2.33
2023-01-10T03:36:47.385Z,2.53
2023-01-10T03:39:20.455Z,2.17
2023-01-10T03:41:55.849Z,2.45
2023-01-10T03:44:43.818Z,2.28
2023-01-10T03:47:12.875Z,2.97
2023-01-10T03:49:41.154Z,2.22
2023-01-10T03:52:09.443Z,2.38
2023-01-10T03:54:35.775Z,1.73
2023-01-10T03:57:02.889Z,2.42
2023-01-10T03:59:30.584Z,2.55
2023-01-10T04:01:57.103Z,2.35
2023-01-10T04:04:23.582Z,2.80
2023-01-10T04:06:50.050Z,2.80
2023-01-10T04:09:16.570Z,2.28
2023-01-10T04:11:42.903Z,2.60
2023-01-10T04:14:09.229Z,2.30
2023-01-10T04:16:35.637Z,2.35
2023-01-10T04:19:02.007Z,2.53
2023-01-10T04:21:28.350Z,2.13
2023-01-10T04:23:54.937Z,2.63
2023-01-10T04:26:21.369Z,2.70
2023-01-10T04:28:47.682Z,2.55
2023-01-10T04:31:14.247Z,2.92
2023-01-10T04:33:41.269Z,2.60
2023-01-10T04:36:07.836Z,2.45
2023-01-10T04:38:34.446Z,2.67
2023-01-10T04:41:00.833Z,3.55
2023-01-10T04:43:27.214Z,3.03
2023-01-10T04:45:53.696Z,2.55
2023-01-10T04:48:20.119Z,3.42
2023-01-10T04:50:50.905Z,2.80
2023-01-10T04:53:17.512Z,3.05
2023-01-10T04:55:43.888Z,2.00
2023-01-10T04:58:10.516Z,1.98
2023-01-10T05:00:36.943Z,2.47
2023-01-10T05:03:03.444Z,3.90
2023-01-10T05:05:30.702Z,3.10
2023-01-10T05:07:57.320Z,2.70
2023-01-10T05:10:23.748Z,2.13
2023-01-10T05:12:50.366Z,3.40
2023-01-10T05:15:16.727Z,2.45
2023-01-10T05:17:43.097Z,3.70
2023-01-10T05:20:10.006Z,3.67
2023-01-10T05:22:36.410Z,2.13
2023-01-10T05:25:02.759Z,3.25
2023-01-10T05:27:29.151Z,2.03
2023-01-10T05:29:56.002Z,2.47
2023-01-10T05:32:22.820Z,2.40
2023-01-10T05:34:49.297Z,3.20
2023-01-10T05:37:15.778Z,2.90
2023-01-10T05:39:43.534Z,2.58
2023-01-10T05:42:09.849Z,3.03
2023-01-10T05:44:36.218Z,2.42
2023-01-10T05:47:02.742Z,2.10
2023-01-10T05:49:30.417Z,2.33
2023-01-10T05:51:56.757Z,2.15
2023-01-10T05:54:23.065Z,3.10
2023-01-10T05:56:49.423Z,1.95
2023-01-10T05:59:27.469Z,2.55
2023-01-10T06:01:54.768Z,2.65
2023-01-10T06:04:21.134Z,2.88
2023-01-10T06:06:47.464Z,2.63
2023-01-10T06:09:13.811Z,3.10
2023-01-10T06:11:40.277Z,2.65
2023-01-10T06:14:07.811Z,2.42
2023-01-10T06:16:34.316Z,2.88
2023-01-10T06:19:00.762Z,2.95
2023-01-10T06:21:27.101Z,2.97
2023-01-10T06:23:53.434Z,2.83
2023-01-10T06:26:19.781Z,2.35
2023-01-10T06:28:46.381Z,1.98
2023-01-10T06:31:14.933Z,1.90
2023-01-10T06:33:41.616Z,2.65
2023-01-10T06:36:08.584Z,2.45
2023-01-10T06:38:34.952Z,2.17
2023-01-10T06:41:13.075Z,2.88
2023-01-10T06:43:45.249Z,2.75
2023-01-10T06:46:12.640Z,2.55
2023-01-10T06:48:39.151Z,3.13
2023-01-10T06:51:06.022Z,2.47
2023-01-10T06:53:32.719Z,2.50
2023-01-10T06:55:59.113Z,2.70
2023-01-10T06:58:25.565Z,2.60
2023-01-10T07:00:52.140Z,2.70
2023-01-10T07:03:18.591Z,3.10
2023-01-10T07:05:44.965Z,2.65
2023-01-10T07:08:11.415Z,2.85
2023-01-10T07:10:39.878Z,2.95
2023-01-10T07:13:06.220Z,3.20
2023-01-10T07:15:32.585Z,2.65
2023-01-10T07:17:59.287Z,2.92
2023-01-10T07:20:25.875Z,2.42
2023-01-10T07:22:56.032Z,2.63
2023-01-10T07:25:22.755Z,2.72
2023-01-10T07:27:49.231Z,2.08
2023-01-10T07:30:15.813Z,2.80
2023-01-10T07:32:42.196Z,2.83
2023-01-10T07:35:09.027Z,2.38
2023-01-10T07:37:35.660Z,1.92
2023-01-10T07:40:02.206Z,3.55
2023-01-10T07:42:28.505Z,3.78
2023-01-10T07:44:54.856Z,3.70
2023-01-10T07:47:21.162Z,2.95
2023-01-10T07:49:47.487Z,3.35
2023-01-10T07:52:13.895Z,2.92
2023-01-10T07:54:40.311Z,2.60
2023-01-10T07:57:06.855Z,3.60
2023-01-10T07:59:33.296Z,3.67
2023-01-10T08:01:59.641Z,3.80
2023-01-10T08:04:25.944Z,4.10
2023-01-10T08:06:54.376Z,3.28
2023-01-10T08:09:20.781Z,3.70
2023-01-10T08:11:47.229Z,3.35
2023-01-10T08:14:13.799Z,3.17
2023-01-10T08:16:40.274Z,4.78
2023-01-10T08:19:07.096Z,3.45
2023-01-10T08:21:33.811Z,3.35
2023-01-10T08:24:00.309Z,3.58
2023-01-10T08:26:26.696Z,3.42
2023-01-10T08:28:53.635Z,4.20
2023-01-10T08:31:20.176Z,3.58
2023-01-10T08:33:46.757Z,2.90
2023-01-10T08:36:16.949Z,3.10
2023-01-10T08:38:43.343Z,2.92
2023-01-10T08:41:09.764Z,3.42
2023-01-10T08:43:36.221Z,3.33
2023-01-10T08:46:02.764Z,3.10
2023-01-10T08:48:29.300Z,3.47
2023-01-10T08:50:55.619Z,3.22
2023-01-10T08:53:21.971Z,4.07
2023-01-10T08:55:48.871Z,3.72
2023-01-10T08:58:15.347Z,3.17
2023-01-10T09:00:41.687Z,3.55
2023-01-10T09:03:08.727Z,3.65
2023-01-10T09:05:35.083Z,2.42
2023-01-10T09:08:02.370Z,3.22
2023-01-10T09:10:29.781Z,3.65
2023-01-10T09:12:58.739Z,4.38
2023-01-10T09:15:32.217Z,2.97
2023-01-10T09:17:59.714Z,3.50
2023-01-10T09:20:27.303Z,4.22
2023-01-10T09:22:54.039Z,4.10
2023-01-10T09:25:20.909Z,3.60
2023-01-10T09:27:47.444Z,3.70
2023-01-10T09:30:14.273Z,3.97
2023-01-10T09:32:40.751Z,4.30
2023-01-10T09:35:07.542Z,3.72
2023-01-10T09:37:34.639Z,3.38
2023-01-10T09:40:01.096Z,3.63
2023-01-10T09:42:33.106Z,3.38
2023-01-10T09:45:18.510Z,3.42
2023-01-10T09:47:44.950Z,4.00
2023-01-10T09:50:17.561Z,3.67
2023-01-10T09:52:50.206Z,4.07
2023-01-10T09:55:33.522Z,2.78
2023-01-10T09:58:27.640Z,4.82
2023-01-10T10:00:56.596Z,3.00
2023-01-10T10:03:26.019Z,3.97
2023-01-10T10:06:00.889Z,3.85
2023-01-10T10:08:33.613Z,3.63
2023-01-10T10:11:10.452Z,3.15
2023-01-10T10:13:42.833Z,3.55
2023-01-10T10:16:31.368Z,3.15
2023-01-10T10:19:00.694Z,2.75
2023-01-10T10:21:35.962Z,3.70
2023-01-10T10:24:10.678Z,3.15
2023-01-10T10:26:44.789Z,4.38
2023-01-10T10:29:22.283Z,3.22
2023-01-10T10:32:07.487Z,4.03
2023-01-10T10:34:45.755Z,4.22
2023-01-10T10:37:17.620Z,3.05
2023-01-10T10:39:47.383Z,3.25
2023-01-10T10:42:15.460Z,3.55
2023-01-10T10:44:45.031Z,4.10
2023-01-10T10:47:14.872Z,3.75
2023-01-10T10:49:53.472Z,3.92
2023-01-10T10:52:23.624Z,4.10
2023-01-10T10:54:50.484Z,4.68
2023-01-10T10:57:17.614Z,3.42
2023-01-10T10:59:46.298Z,3.60
2023-01-10T11:02:32.613Z,3.05
2023-01-10T11:12:29.616Z,3.30
2023-01-10T11:14:56.023Z,3.50
2023-01-10T11:17:26.942Z,4.15
2023-01-10T11:19:58.185Z,3.70
2023-01-10T11:22:25.364Z,3.55
2023-01-10T11:24:59.669Z,3.25
2023-01-10T11:27:28.016Z,3.38
2023-01-10T11:30:02.169Z,2.95
2023-01-10T11:32:37.164Z,3.40
2023-01-10T11:35:06.990Z,2.80
2023-01-10T11:37:34.833Z,3.47
2023-01-10T11:40:10.295Z,4.03
2023-01-10T11:42:36.620Z,3.13
2023-01-10T11:45:18.160Z,2.75
2023-01-10T11:47:55.397Z,3.55
2023-01-10T11:50:26.660Z,3.08
2023-01-10T11:52:53.755Z,3.42
2023-01-10T11:55:21.869Z,3.42
2023-01-10T11:57:55.513Z,2.70
2023-01-10T12:00:22.383Z,2.92
2023-01-10T12:02:50.204Z,3.00
2023-01-10T12:05:20.684Z,3.35
2023-01-10T12:07:54.223Z,2.90
2023-01-10T12:10:21.625Z,3.35
2023-01-10T12:13:07.962Z,3.85
2023-01-10T12:18:03.128Z,2.45
2023-01-10T12:20:31.339Z,3.35
2023-01-10T12:23:03.512Z,3.67
2023-01-10T12:25:34.620Z,3.63
2023-01-10T12:28:01.628Z,2.65
2023-01-10T12:30:41.399Z,3.75
2023-01-10T12:33:12.474Z,3.42
2023-01-10T12:35:41.075Z,2.65
2023-01-10T12:38:46.342Z,2.83
2023-01-10T12:41:35.666Z,2.90
2023-01-10T12:44:11.464Z,3.75
2023-01-10T12:49:26.453Z,3.30
2023-01-10T12:51:55.233Z,4.40
2023-01-10T12:54:23.948Z,3.30
2023-01-10T12:56:50.782Z,3.28
2023-01-10T12:59:36.076Z,2.72
2023-01-10T13:02:05.271Z,3.05
2023-01-10T13:04:34.549Z,3.47
2023-01-10T13:07:01.832Z,2.60
2023-01-10T13:09:30.019Z,3.33
2023-01-10T13:11:59.288Z,3.28
2023-01-10T13:14:29.821Z,3.00
2023-01-10T13:17:08.612Z,2.63
2023-01-10T13:19:35.058Z,3.13
2023-01-10T13:22:20.499Z,2.75
2023-01-10T13:24:55.749Z,3.30
2023-01-10T13:27:23.953Z,3.28
2023-01-10T13:29:51.200Z,2.83
2023-01-10T13:32:17.584Z,3.90
2023-01-10T13:34:44.026Z,2.85
2023-01-10T13:37:12.314Z,3.75
2023-01-10T13:39:40.581Z,3.35
2023-01-10T13:42:25.439Z,2.88
2023-01-10T13:45:01.019Z,3.30
2023-01-10T13:47:40.088Z,3.38
2023-01-10T13:50:24.987Z,3.35
2023-01-10T13:52:52.399Z,3.10
2023-01-10T13:55:37.954Z,2.45
2023-01-10T13:58:42.767Z,2.25
2023-01-10T14:01:57.377Z,2.40
2023-01-10T14:04:31.742Z,2.08
2023-01-10T14:07:02.998Z,1.90
2023-01-10T14:09:36.860Z,2.33
2023-01-10T14:12:05.018Z,2.33
2023-01-10T14:14:33.235Z,2.58
2023-01-10T14:17:19.685Z,1.83
2023-01-10T14:19:47.861Z,1.75
2023-01-10T14:22:25.533Z,2.95
2023-01-10T14:24:53.025Z,1.70
2023-01-10T14:27:20.461Z,2.70
2023-01-10T14:29:52.907Z,1.88
2023-01-10T14:32:39.679Z,2.17
2023-01-10T14:35:07.510Z,1.90
2023-01-10T14:37:57.324Z,1.92
2023-01-10T14:40:26.572Z,2.28
2023-01-10T14:42:55.806Z,2.25
2023-01-10T14:45:34.976Z,2.25
2023-01-10T14:48:17.378Z,1.63
2023-01-10T14:50:44.425Z,2.60
2023-01-10T14:53:24.993Z,2.15
2023-01-10T14:55:51.443Z,2.17
2023-01-10T14:58:18.024Z,1.80
2023-01-10T15:00:46.205Z,2.40
2023-01-10T15:03:18.422Z,2.03
2023-01-10T15:05:49.966Z,2.15
2023-01-10T15:08:16.960Z,2.22
2023-01-10T15:10:47.387Z,2.28
2023-01-10T15:13:15.504Z,1.73
2023-01-10T15:15:43.845Z,1.88
2023-01-10T15:18:27.354Z,1.48
2023-01-10T15:20:54.158Z,1.63
2023-01-10T15:23:21.161Z,1.85
2023-01-10T15:25:55.837Z,1.35
2023-01-10T15:28:22.380Z,1.63
2023-01-10T15:30:48.957Z,1.58
2023-01-10T15:33:35.772Z,1.00
2023-01-10T15:36:07.005Z,1.42
2023-01-10T15:38:35.834Z,1.20
2023-01-10T15:41:03.442Z,1.20
2023-01-10T15:43:30.697Z,1.67
2023-01-10T15:45:58.152Z,0.88
2023-01-10T15:48:24.673Z,1.10
2023-01-10T15:51:03.693Z,0.98
2023-01-10T15:53:48.601Z,1.00
2023-01-10T15:56:17.953Z,0.82
2023-01-10T15:58:44.494Z,1.30
2023-01-10T16:01:14.402Z,0.65
2023-01-10T16:03:46.963Z,1.15
2023-01-10T16:06:19.617Z,1.25
2023-01-10T16:08:48.852Z,0.90
2023-01-10T16:11:46.166Z,1.00
2023-01-10T16:14:12.610Z,0.80
2023-01-10T16:16:39.025Z,0.45
2023-01-10T16:19:05.852Z,0.90
2023-01-10T16:21:38.272Z,0.90
2023-01-10T16:24:05.380Z,0.52
2023-01-10T16:26:32.013Z,0.70
2023-01-10T16:28:58.437Z,0.70
2023-01-10T16:31:25.180Z,0.73
2023-01-10T16:33:51.941Z,0.80
2023-01-10T16:36:20.971Z,0.70
2023-01-10T16:38:47.778Z,0.60
2023-01-10T16:41:33.348Z,0.80
2023-01-10T16:44:00.598Z,0.88
2023-01-10T16:46:27.550Z,0.80
2023-01-10T16:48:55.160Z,0.77
2023-01-10T16:51:21.550Z,0.75
2023-01-10T16:53:48.438Z,1.08
2023-01-10T16:56:16.655Z,1.00
2023-01-10T16:58:43.173Z,1.00
2023-01-10T17:01:16.645Z,1.63
2023-01-10T17:03:43.241Z,1.20
2023-01-10T17:06:10.846Z,1.25
2023-01-10T17:08:37.501Z,1.48
2023-01-10T17:11:06.730Z,1.30
2023-01-10T17:13:36.050Z,1.60
2023-01-10T17:16:02.768Z,1.40
2023-01-10T17:18:29.132Z,1.45
2023-01-10T17:20:57.369Z,1.42
2023-01-10T17:23:24.298Z,1.92
2023-01-10T17:25:50.848Z,1.27
2023-01-10T17:28:19.484Z,2.00
2023-01-10T17:30:46.256Z,1.80
2023-01-10T17:33:12.709Z,2.10
2023-01-10T17:35:42.681Z,1.50
2023-01-10T17:38:13.322Z,1.88
2023-01-10T17:40:41.241Z,1.50
2023-01-10T17:43:07.884Z,2.00
2023-01-10T17:45:34.373Z,1.50
2023-01-10T17:48:00.747Z,1.65
2023-01-10T17:50:27.145Z,2.05
2023-01-10T17:52:53.780Z,1.50
2023-01-10T17:55:20.236Z,1.77
2023-01-10T17:57:46.572Z,1.80
2023-01-10T18:00:13.520Z,1.90
2023-01-10T18:02:40.048Z,1.50
2023-01-10T18:05:06.632Z,1.65
2023-01-10T18:07:33.237Z,1.50
2023-01-10T18:09:59.603Z,1.95
2023-01-10T18:12:26.065Z,1.85
2023-01-10T18:14:52.592Z,1.40
2023-01-10T18:17:19.053Z,1.88
2023-01-10T18:19:45.575Z,2.08
2023-01-10T18:22:30.627Z,2.10
2023-01-10T18:24:57.465Z,2.65
2023-01-10T18:27:24.973Z,2.17
2023-01-10T18:29:51.897Z,1.85
2023-01-10T18:32:19.036Z,1.85
2023-01-10T18:34:47.120Z,2.25
2023-01-10T18:37:14.054Z,2.50
2023-01-10T18:39:40.567Z,2.25
2023-01-10T18:42:06.895Z,2.22
2023-01-10T18:44:33.295Z,2.38
2023-01-10T18:46:59.674Z,2.28
2023-01-10T18:49:26.008Z,2.35
2023-01-10T18:51:52.547Z,2.05
2023-01-10T18:54:19.042Z,2.55
2023-01-10T18:56:45.393Z,2.05
2023-01-10T18:59:11.806Z,2.65
2023-01-10T19:01:38.186Z,2.05
2023-01-10T19:04:05.152Z,1.85
2023-01-10T19:06:31.647Z,1.58
2023-01-10T19:08:58.079Z,2.25
2023-01-10T19:11:24.485Z,1.90
2023-01-10T19:13:53.166Z,1.80
2023-01-10T19:16:19.617Z,2.67
2023-01-10T19:18:50.267Z,2.10
2023-01-10T19:21:16.954Z,2.05
2023-01-10T19:23:47.389Z,1.88
2023-01-10T19:26:14.061Z,1.70
2023-01-10T19:28:40.673Z,2.22
2023-01-10T19:31:07.082Z,2.00
2023-01-10T19:33:34.570Z,2.17
2023-01-10T19:36:04.537Z,1.92
2023-01-10T19:38:30.934Z,1.85
2023-01-10T19:40:57.390Z,2.00
2023-01-10T19:43:24.952Z,2.17
2023-01-10T19:45:51.650Z,2.30
2023-01-10T19:48:18.243Z,1.95
2023-01-10T19:50:44.653Z,2.17
2023-01-10T19:53:11.107Z,2.00
2023-01-10T19:55:37.550Z,1.75
2023-01-10T19:58:03.920Z,1.80
2023-01-10T20:00:30.315Z,1.77
2023-01-10T20:02:59.378Z,1.88
2023-01-10T20:05:25.911Z,2.03
2023-01-10T20:07:52.477Z,2.00
2023-01-10T20:10:18.953Z,2.20
2023-01-10T20:12:45.287Z,2.03
2023-01-10T20:15:11.689Z,1.73
2023-01-10T20:17:39.430Z,1.90
2023-01-10T20:20:05.989Z,1.90
2023-01-10T20:22:32.371Z,1.75
2023-01-10T20:24:58.780Z,1.75
2023-01-10T20:27:25.137Z,1.95
2023-01-10T20:29:51.564Z,2.05
2023-01-10T20:32:19.602Z,2.80
2023-01-10T20:34:47.455Z,1.90
2023-01-10T20:37:14.381Z,1.52
2023-01-10T20:39:40.885Z,1.80
2023-01-10T20:42:07.223Z,1.67
2023-01-10T20:44:33.697Z,1.70
2023-01-10T20:47:00.096Z,1.80
2023-01-10T20:49:26.711Z,1.50
2023-01-10T20:51:54.319Z,1.88
2023-01-10T20:54:20.869Z,1.90
2023-01-10T20:56:47.507Z,1.75
2023-01-10T20:59:13.861Z,2.05
2023-01-10T21:01:40.316Z,2.00
2023-01-10T21:04:07.051Z,1.60
2023-01-10T21:06:34.081Z,1.90
2023-01-10T21:09:00.743Z,1.63
2023-01-10T21:11:27.296Z,2.38
2023-01-10T21:13:53.656Z,1.70
2023-01-10T21:16:21.978Z,2.35
2023-01-10T21:18:48.743Z,2.00
2023-01-10T21:21:16.357Z,1.90
2023-01-10T21:23:43.031Z,1.60
2023-01-10T21:26:11.082Z,2.15
2023-01-10T21:28:42.387Z,2.05
2023-01-10T21:31:09.565Z,2.17
2023-01-10T21:33:36.001Z,2.10
2023-01-10T21:36:02.462Z,1.63
2023-01-10T21:38:28.887Z,2.20
2023-01-10T21:40:55.708Z,1.92
2023-01-10T21:43:23.023Z,2.17
2023-01-10T21:45:49.416Z,1.65
2023-01-10T21:48:15.814Z,2.25
2023-01-10T21:50:44.665Z,1.98
2023-01-10T21:53:11.121Z,2.05
2023-01-10T21:55:37.570Z,2.45
2023-01-10T21:58:03.958Z,1.73
2023-01-10T22:00:30.418Z,1.58
2023-01-10T22:02:57.595Z,2.08
2023-01-10T22:05:24.283Z,2.10
2023-01-10T22:07:51.268Z,1.70
2023-01-10T22:10:17.922Z,1.90
2023-01-10T22:12:44.238Z,1.70
2023-01-10T22:15:11.024Z,2.13
2023-01-10T22:17:37.434Z,2.45
2023-01-10T22:20:04.022Z,1.88
2023-01-10T22:22:42.149Z,1.75
2023-01-10T22:25:08.701Z,1.95
2023-01-10T22:27:35.260Z,1.85
2023-01-10T22:30:01.748Z,1.98
2023-01-10T22:32:28.069Z,1.95
2023-01-10T22:34:54.462Z,2.10
2023-01-10T22:37:20.799Z,1.50
2023-01-10T22:39:48.596Z,1.95
2023-01-10T22:42:15.096Z,2.08
2023-01-10T22:44:41.444Z,1.95
2023-01-10T22:47:08.694Z,1.90
2023-01-10T22:49:35.076Z,1.88
2023-01-10T22:52:01.477Z,1.75
2023-01-10T22:54:27.893Z,1.80
2023-01-10T22:56:54.260Z,2.00
2023-01-10T22:59:20.635Z,2.20
2023-01-10T23:01:47.077Z,1.60
2023-01-10T23:04:13.534Z,1.90
2023-01-10T23:06:40.082Z,1.80
2023-01-10T23:09:06.492Z,1.50
2023-01-10T23:11:32.852Z,1.77
2023-01-10T23:13:59.173Z,1.35
2023-01-10T23:16:32.614Z,1.80
2023-01-10T23:18:59.609Z,1.60
2023-01-10T23:21:26.466Z,1.65
2023-01-10T23:23:52.823Z,2.00
2023-01-10T23:26:19.191Z,1.77
2023-01-10T23:28:47.229Z,1.60
2023-01-10T23:31:14.799Z,1.80
2023-01-10T23:33:41.216Z,1.55
2023-01-10T23:36:07.743Z,1.50
2023-01-10T23:38:34.176Z,1.67
2023-01-10T23:41:00.492Z,1.48
2023-01-10T23:43:26.896Z,1.77
2023-01-10T23:45:53.530Z,1.90
2023-01-10T23:48:20.013Z,1.77
2023-01-10T23:50:48.598Z,2.22
2023-01-10T23:53:14.987Z,1.70
2023-01-10T23:55:41.346Z,1.60
2023-01-10T23:58:07.772Z,2.28
